Time;durP1;ratioP1;P1;durP2;ratioP2;P2;SDS_P1;SDS_P2;PMS_P1;PMS_P2;Temp;Humidity;BMP_temperature;BMP_pressure;BME280_temperature;BME280_humidity;BME280_pressure;Samples;Min_cycle;Max_cycle;Signal;HPM_P1;HPM_P2
2021/12/04 00:01:16;;;;;;;3.67;1.83;;;;;;;5.87;78.39;98966.28;4989719;28;20054;-63
2021/12/04 00:03:42;;;;;;;3.35;1.90;;;;;;;5.88;81.12;98977.72;4993058;28;20481;-63
2021/12/04 00:06:12;;;;;;;3.47;1.80;;;;;;;5.83;83.12;98962.00;4990975;28;20026;-64
2021/12/04 00:08:43;;;;;;;3.00;1.98;;;;;;;5.77;84.42;98978.00;4978897;28;20023;-64
2021/12/04 00:11:08;;;;;;;6.70;2.10;;;;;;;5.76;86.66;98965.72;4982176;28;20541;-64
2021/12/04 00:13:34;;;;;;;4.03;2.03;;;;;;;5.77;88.16;98961.28;4990892;28;20050;-64
2021/12/04 00:15:59;;;;;;;4.60;1.90;;;;;;;5.74;89.62;98956.13;4987922;28;20027;-64
2021/12/04 00:18:24;;;;;;;3.08;1.70;;;;;;;5.74;90.55;98956.13;4990431;28;20069;-64
2021/12/04 00:20:50;;;;;;;3.60;1.90;;;;;;;5.76;91.39;98962.22;4986541;28;20064;-64
2021/12/04 00:23:46;;;;;;;4.22;2.30;;;;;;;5.73;92.51;98952.63;4974119;28;20031;-64
2021/12/04 00:26:11;;;;;;;3.80;1.90;;;;;;;5.66;93.47;98944.94;4990484;28;20027;-63
2021/12/04 00:28:38;;;;;;;3.08;2.30;;;;;;;5.60;94.91;98932.78;4994028;28;20717;-63
2021/12/04 00:31:09;;;;;;;6.28;2.00;;;;;;;5.60;95.71;98926.66;4993932;28;20517;-63
2021/12/04 00:33:38;;;;;;;3.67;2.13;;;;;;;5.53;97.47;98914.56;4993268;28;20058;-62
2021/12/04 00:36:09;;;;;;;7.05;2.30;;;;;;;5.56;98.02;98909.19;4987199;28;20031;-62
2021/12/04 00:43:20;;;;;;;4.10;2.28;;;;;;;5.59;98.84;98909.09;4974465;28;20074;-63
2021/12/04 00:49:37;;;;;;;;;;;;;;;5.52;100.00;98894.41;4974478;28;20050;-63
2021/12/04 00:52:03;;;;;;;3.33;1.75;;;;;;;5.46;100.00;98879.59;4974046;28;19913;-63
2021/12/04 00:54:28;;;;;;;3.22;2.03;;;;;;;5.52;100.00;98879.41;4974163;28;20042;-63
2021/12/04 00:56:55;;;;;;;3.70;2.33;;;;;;;5.52;100.00;98865.38;4992955;28;20362;-63
2021/12/04 00:59:21;;;;;;;3.92;2.20;;;;;;;5.51;100.00;98863.63;4993101;28;20022;-63
2021/12/04 01:01:46;;;;;;;3.42;2.28;;;;;;;5.53;100.00;98865.34;4983369;28;20134;-63
2021/12/04 01:04:15;;;;;;;6.93;2.70;;;;;;;5.50;100.00;98859.28;4977047;28;20034;-63
2021/12/04 01:06:41;;;;;;;4.93;2.53;;;;;;;5.48;100.00;98837.38;4971802;28;20038;-63
2021/12/04 01:09:10;;;;;;;4.47;2.25;;;;;;;5.46;100.00;98833.91;4974306;28;20031;-63
2021/12/04 01:11:38;;;;;;;3.22;2.20;;;;;;;5.50;100.00;98840.81;4986454;28;20033;-63
2021/12/04 01:14:05;;;;;;;4.95;1.95;;;;;;;5.53;100.00;98830.19;4980628;28;20057;-63
2021/12/04 01:16:31;;;;;;;3.35;2.17;;;;;;;5.54;100.00;98822.22;4987351;28;20030;-63
2021/12/04 01:18:56;;;;;;;4.80;2.30;;;;;;;5.56;100.00;98825.69;5004792;28;20030;-63
2021/12/04 01:21:22;;;;;;;4.25;2.33;;;;;;;5.60;100.00;98815.91;4998834;28;20030;-64
2021/12/04 01:23:47;;;;;;;3.50;2.40;;;;;;;5.64;100.00;98812.22;5008958;28;20032;-64
2021/12/04 01:26:13;;;;;;;4.78;2.42;;;;;;;5.60;100.00;98795.63;5010284;28;20110;-64
2021/12/04 01:28:38;;;;;;;2.28;1.80;;;;;;;5.61;100.00;98796.50;4980367;28;20050;-64
2021/12/04 01:31:04;;;;;;;6.70;2.22;;;;;;;5.67;100.00;98796.34;4971844;28;20030;-64
2021/12/04 01:33:29;;;;;;;10.02;2.70;;;;;;;5.67;100.00;98789.25;4976028;28;20395;-64
2021/12/04 01:35:55;;;;;;;2.85;1.95;;;;;;;5.68;100.00;98788.38;5010208;28;20076;-64
2021/12/04 01:38:20;;;;;;;4.50;2.10;;;;;;;5.67;100.00;98772.59;5011773;28;20022;-64
2021/12/04 01:40:45;;;;;;;4.82;2.60;;;;;;;5.72;100.00;98768.00;5013223;28;20030;-65
2021/12/04 01:43:11;;;;;;;7.22;2.90;;;;;;;5.76;100.00;98772.28;4987424;28;20097;-65
2021/12/04 01:45:37;;;;;;;4.78;2.63;;;;;;;5.79;100.00;98765.13;4993285;28;20042;-65
2021/12/04 01:48:03;;;;;;;8.27;2.83;;;;;;;5.81;100.00;98757.16;4992394;28;20035;-65
2021/12/04 01:50:30;;;;;;;4.50;2.45;;;;;;;5.81;100.00;98743.97;4993021;28;20022;-65
2021/12/04 01:52:58;;;;;;;3.83;2.30;;;;;;;5.79;100.00;98738.75;4989694;28;20045;-66
2021/12/04 01:55:26;;;;;;;3.10;2.40;;;;;;;5.77;100.00;98739.69;4992111;28;20109;-65
2021/12/04 01:57:51;;;;;;;4.00;2.72;;;;;;;5.85;100.00;98735.91;4982071;28;20039;-65
2021/12/04 02:00:17;;;;;;;3.45;2.25;;;;;;;5.86;100.00;98744.69;4992507;28;20030;-65
2021/12/04 02:02:42;;;;;;;4.93;2.88;;;;;;;5.80;100.00;98724.63;4991244;28;20490;-65
2021/12/04 02:05:08;;;;;;;8.93;3.22;;;;;;;5.91;100.00;98738.38;4984782;28;20022;-65
2021/12/04 02:07:34;;;;;;;6.85;2.67;;;;;;;5.91;100.00;98730.44;4988643;28;20018;-65
2021/12/04 02:09:59;;;;;;;4.35;2.42;;;;;;;5.92;100.00;98720.72;4985236;28;20084;-65
2021/12/04 02:12:24;;;;;;;5.53;3.40;;;;;;;5.93;100.00;98719.84;4993428;28;20046;-65
2021/12/04 02:14:50;;;;;;;3.85;1.98;;;;;;;5.99;100.00;98716.97;4979060;28;20030;-65
2021/12/04 02:17:16;;;;;;;4.15;2.60;;;;;;;6.02;100.00;98706.31;4972203;28;20022;-65
2021/12/04 02:19:46;;;;;;;4.22;2.33;;;;;;;6.05;100.00;98708.84;4972737;28;20136;-65
2021/12/04 02:22:12;;;;;;;3.53;2.08;;;;;;;6.03;100.00;98710.69;4978682;28;20069;-65
2021/12/04 02:24:37;;;;;;;5.70;2.47;;;;;;;6.06;100.00;98697.38;4973103;28;20395;-65
2021/12/04 02:27:03;;;;;;;6.13;2.63;;;;;;;6.04;100.00;98696.56;4979958;28;20018;-65
2021/12/04 02:29:29;;;;;;;4.22;2.38;;;;;;;6.03;100.00;98689.56;4991150;28;20037;-65
2021/12/04 02:31:57;;;;;;;3.78;2.10;;;;;;;6.07;100.00;98685.88;4981498;28;20034;-65
2021/12/04 02:34:25;;;;;;;5.63;2.67;;;;;;;6.08;100.00;98677.06;4976209;28;20085;-65
2021/12/04 02:36:51;;;;;;;4.72;2.50;;;;;;;6.07;100.00;98673.56;4989471;28;20557;-65
2021/12/04 02:39:22;;;;;;;5.72;2.55;;;;;;;6.12;100.00;98668.13;4991596;28;20055;-65
2021/12/04 02:41:48;;;;;;;4.03;1.73;;;;;;;6.15;100.00;98673.28;4991002;28;20026;-65
2021/12/04 02:44:13;;;;;;;2.85;1.98;;;;;;;6.22;100.00;98659.81;4991229;28;20581;-65
2021/12/04 02:46:38;;;;;;;5.53;2.30;;;;;;;6.26;100.00;98640.28;4989876;28;20426;-65
2021/12/04 02:49:06;;;;;;;3.92;2.13;;;;;;;6.29;100.00;98650.72;4982871;28;20109;-65
2021/12/04 02:51:31;;;;;;;3.85;1.98;;;;;;;6.34;100.00;98645.28;4983998;28;20039;-65
2021/12/04 02:53:57;;;;;;;3.17;1.83;;;;;;;6.40;100.00;98637.13;4990324;28;20109;-64
2021/12/04 02:56:25;;;;;;;4.88;2.17;;;;;;;6.38;100.00;98628.41;4988727;28;20061;-64
2021/12/04 02:58:54;;;;;;;5.28;2.08;;;;;;;6.50;100.00;98622.66;4983272;28;20759;-65
2021/12/04 03:01:19;;;;;;;3.00;2.05;;;;;;;6.54;100.00;98616.31;4990704;28;20034;-64
2021/12/04 03:03:45;;;;;;;2.55;1.60;;;;;;;6.58;100.00;98616.16;4991745;28;20117;-64
2021/12/04 03:06:10;;;;;;;3.50;2.05;;;;;;;6.65;100.00;98598.28;4987290;28;20486;-65
2021/12/04 03:08:36;;;;;;;2.78;1.67;;;;;;;6.69;100.00;98602.50;4985369;28;20081;-64
2021/12/04 03:11:01;;;;;;;3.45;1.90;;;;;;;6.76;100.00;98593.44;4990892;28;20037;-64
2021/12/04 03:13:27;;;;;;;2.58;1.65;;;;;;;6.84;100.00;98591.34;4980925;28;20043;-64
2021/12/04 03:15:59;;;;;;;3.40;1.83;;;;;;;6.85;100.00;98582.50;4990727;28;20444;-64
2021/12/04 03:18:26;;;;;;;3.65;1.70;;;;;;;6.96;100.00;98569.72;4991120;28;20054;-64
2021/12/04 03:20:54;;;;;;;3.22;1.88;;;;;;;6.99;100.00;98568.72;4989026;28;20027;-64
2021/12/04 03:23:30;;;;;;;3.45;1.75;;;;;;;7.04;100.00;98564.09;4990017;28;20412;-64
2021/12/04 03:25:58;;;;;;;2.50;1.50;;;;;;;7.05;100.00;98553.44;4990516;28;20101;-64
2021/12/04 03:28:23;;;;;;;2.70;1.65;;;;;;;7.10;100.00;98556.75;4991723;28;20076;-64
2021/12/04 03:31:14;;;;;;;3.33;1.52;;;;;;;7.13;100.00;98539.94;4983302;28;20062;-63
2021/12/04 03:41:46;;;;;;;;;;;;;;;7.29;100.00;98520.69;4971658;28;20509;-64
2021/12/04 03:44:11;;;;;;;2.78;1.35;;;;;;;7.28;100.00;98508.38;4971879;28;20008;-64
2021/12/04 03:46:37;;;;;;;2.83;1.60;;;;;;;7.32;100.00;98507.34;4981578;28;20371;-64
2021/12/04 03:49:02;;;;;;;2.08;1.15;;;;;;;7.35;100.00;98503.69;4990480;28;20084;-64
2021/12/04 03:51:28;;;;;;;1.48;1.10;;;;;;;7.33;100.00;98495.81;4986905;28;20022;-64
2021/12/04 03:53:55;;;;;;;2.30;1.38;;;;;;;7.43;100.00;98497.13;4991994;28;20482;-64
2021/12/04 03:56:22;;;;;;;7.32;1.15;;;;;;;7.48;100.00;98495.16;4994134;28;20393;-64
2021/12/04 03:58:48;;;;;;;1.10;0.98;;;;;;;7.49;100.00;98488.94;4994758;28;20030;-64
2021/12/04 04:01:13;;;;;;;1.88;1.08;;;;;;;7.50;100.00;98480.06;4984712;28;20133;-64
2021/12/04 04:03:39;;;;;;;2.35;1.40;;;;;;;7.53;100.00;98479.94;4975548;28;20027;-63
2021/12/04 04:06:04;;;;;;;2.90;1.10;;;;;;;7.60;100.00;98473.44;4974986;28;20065;-64
2021/12/04 04:08:29;;;;;;;1.80;1.10;;;;;;;7.45;100.00;98442.38;4975599;28;20100;-64
2021/12/04 04:10:55;;;;;;;1.73;1.02;;;;;;;7.65;100.00;98468.81;4990598;28;20030;-64
2021/12/04 04:13:21;;;;;;;1.88;0.98;;;;;;;7.69;100.00;98467.72;4995935;28;20038;-63
2021/12/04 04:15:47;;;;;;;6.35;1.40;;;;;;;7.72;100.00;98477.31;4994623;28;20045;-64
2021/12/04 04:18:13;;;;;;;1.08;0.95;;;;;;;7.71;100.00;98452.63;4992229;28;20026;-63
2021/12/04 04:20:38;;;;;;;1.55;1.33;;;;;;;7.77;100.00;98470.91;4986883;28;20402;-64
2021/12/04 04:23:03;;;;;;;1.00;0.95;;;;;;;7.78;100.00;98459.38;4993839;28;20109;-64
2021/12/04 04:25:29;;;;;;;2.35;0.95;;;;;;;7.86;100.00;98465.16;4982560;28;20036;-64
2021/12/04 04:27:54;;;;;;;1.67;0.75;;;;;;;7.87;100.00;98458.09;4974201;28;20023;-63
2021/12/04 04:30:23;;;;;;;0.73;0.73;;;;;;;7.90;100.00;98460.59;4974346;28;20023;-63
2021/12/04 04:32:50;;;;;;;4.15;1.00;;;;;;;7.93;100.00;98455.16;4976659;28;20022;-64
2021/12/04 04:35:19;;;;;;;0.77;0.77;;;;;;;7.94;100.00;98457.72;4986169;28;20026;-63
2021/12/04 04:37:53;;;;;;;1.05;0.95;;;;;;;7.98;100.00;98447.84;4994246;28;20110;-63
2021/12/04 05:12:55;;;;;;;;;;;;;;;8.36;100.00;98401.00;4978437;28;20481;-63
2021/12/04 05:15:37;;;;;;;1.20;1.05;;;;;;;8.37;100.00;98400.09;4981139;28;19968;-63
2021/12/04 05:20:54;;;;;;;1.35;0.90;;;;;;;8.38;100.00;98401.78;4973181;28;20031;-63
2021/12/04 05:23:21;;;;;;;1.63;0.88;;;;;;;8.44;100.00;98396.19;4974310;28;20049;-63
2021/12/04 05:25:47;;;;;;;0.88;0.80;;;;;;;8.47;100.00;98393.38;4993724;28;20143;-63
2021/12/04 05:28:13;;;;;;;1.15;1.08;;;;;;;8.52;100.00;98391.34;5011575;28;20054;-63
2021/12/04 05:30:39;;;;;;;2.15;1.27;;;;;;;8.53;100.00;98393.97;4990037;28;20026;-63
2021/12/04 05:33:05;;;;;;;5.20;1.90;;;;;;;8.56;100.00;98384.97;4977395;28;20053;-63
2021/12/04 05:35:32;;;;;;;2.28;1.25;;;;;;;8.59;100.00;98390.13;4972560;28;20026;-63
2021/12/04 05:37:58;;;;;;;1.42;1.00;;;;;;;8.60;100.00;98390.03;4985255;28;20034;-63
2021/12/04 05:40:23;;;;;;;1.45;1.13;;;;;;;8.66;100.00;98394.19;4992217;28;20062;-63
2021/12/04 05:42:49;;;;;;;2.30;1.17;;;;;;;8.66;100.00;98384.44;4992940;28;20096;-63
2021/12/04 05:45:18;;;;;;;2.00;1.33;;;;;;;8.73;100.00;98390.28;4988942;28;20355;-63
2021/12/04 05:53:25;;;;;;;1.67;1.10;;;;;;;8.73;100.00;98374.41;4993004;28;20034;-63
2021/12/04 05:55:54;;;;;;;3.15;1.13;;;;;;;8.80;100.00;98381.06;4991981;28;20468;-63
2021/12/04 05:58:28;;;;;;;2.10;0.93;;;;;;;8.81;100.00;98380.16;4992824;28;20022;-63
2021/12/04 06:00:56;;;;;;;2.08;0.90;;;;;;;8.83;100.00;98378.28;4986190;28;20026;-64
2021/12/04 06:03:22;;;;;;;1.60;1.05;;;;;;;8.82;100.00;98374.78;4987504;28;20561;-63
2021/12/04 06:05:48;;;;;;;1.77;1.00;;;;;;;8.83;100.00;98381.78;4992563;28;20116;-63
2021/12/04 06:08:13;;;;;;;2.33;1.30;;;;;;;8.83;100.00;98378.28;4982629;28;20034;-63
2021/12/04 06:10:40;;;;;;;1.77;1.13;;;;;;;8.90;100.00;98387.63;4992170;28;20022;-63
2021/12/04 06:13:05;;;;;;;1.52;1.20;;;;;;;8.89;100.00;98365.56;4986123;28;20562;-63
2021/12/04 06:15:34;;;;;;;1.35;0.93;;;;;;;8.91;100.00;98363.66;4985621;28;20026;-63
2021/12/04 06:18:00;;;;;;;1.98;1.33;;;;;;;8.90;100.00;98359.31;4991366;28;20034;-63
2021/12/04 06:23:10;;;;;;;11.30;2.15;;;;;;;8.96;100.00;98361.63;4988720;28;20037;-64
2021/12/04 06:25:36;;;;;;;4.22;1.40;;;;;;;9.01;100.00;98356.13;4973699;28;20026;-64
2021/12/04 06:28:02;;;;;;;1.15;1.02;;;;;;;9.05;100.00;98361.16;4977500;28;20793;-64
2021/12/04 06:30:33;;;;;;;2.33;1.20;;;;;;;9.09;100.00;98356.56;4991116;28;20030;-64
2021/12/04 06:32:58;;;;;;;1.20;1.02;;;;;;;9.04;100.00;98340.03;4990711;28;20040;-64
2021/12/04 06:35:24;;;;;;;1.40;1.10;;;;;;;9.18;100.00;98350.75;5006276;28;20026;-64
2021/12/04 06:37:50;;;;;;;2.60;1.52;;;;;;;9.16;100.00;98352.63;5008188;28;20100;-64
2021/12/04 06:40:23;;;;;;;2.30;1.40;;;;;;;9.11;100.00;98350.22;4992202;28;20034;-65
2021/12/04 06:42:50;;;;;;;1.38;1.00;;;;;;;9.16;100.00;98348.19;4982571;28;20022;-64
2021/12/04 06:45:15;;;;;;;2.38;1.40;;;;;;;9.19;100.00;98352.50;4991288;28;20109;-64
2021/12/04 06:47:47;;;;;;;2.53;1.48;;;;;;;9.17;100.00;98341.09;4984921;28;20025;-64
2021/12/04 06:50:21;;;;;;;2.70;1.40;;;;;;;9.19;100.00;98348.00;4990801;28;20029;-64
2021/12/04 06:52:48;;;;;;;2.03;1.35;;;;;;;9.24;100.00;98350.44;4991356;28;20029;-64
2021/12/04 06:55:16;;;;;;;3.08;1.67;;;;;;;9.28;100.00;98350.19;4991413;28;20036;-64
2021/12/04 06:57:43;;;;;;;3.28;1.65;;;;;;;9.28;100.00;98341.38;4979933;28;20397;-64
2021/12/04 07:00:10;;;;;;;3.00;1.48;;;;;;;9.31;100.00;98339.41;4971464;28;20021;-64
2021/12/04 07:02:36;;;;;;;3.25;1.60;;;;;;;9.33;100.00;98344.63;4975660;28;20057;-64
2021/12/04 07:05:03;;;;;;;4.55;1.33;;;;;;;9.39;100.00;98338.16;4979053;28;20039;-64
2021/12/04 07:07:29;;;;;;;4.65;1.95;;;;;;;9.42;100.00;98345.94;4981671;28;20022;-64
2021/12/04 07:09:54;;;;;;;4.82;1.63;;;;;;;9.44;100.00;98357.31;4991387;28;20379;-64
2021/12/04 07:12:19;;;;;;;4.30;1.27;;;;;;;9.46;100.00;98350.97;4980801;28;20072;-64
2021/12/04 07:14:45;;;;;;;1.80;1.42;;;;;;;9.47;100.00;98355.38;4990289;28;20041;-64
2021/12/04 07:17:11;;;;;;;4.25;1.17;;;;;;;9.52;100.00;98350.66;4984817;28;20082;-64
2021/12/04 07:19:36;;;;;;;2.65;1.50;;;;;;;9.54;100.00;98354.06;4977015;28;20105;-64
2021/12/04 07:22:03;;;;;;;3.25;1.70;;;;;;;9.55;100.00;98345.19;4970993;28;20442;-64
2021/12/04 07:24:32;;;;;;;2.13;1.45;;;;;;;9.60;100.00;98342.28;4972367;28;20019;-64
2021/12/04 07:26:58;;;;;;;3.58;1.58;;;;;;;9.62;100.00;98343.88;4975848;28;20034;-64
2021/12/04 07:29:23;;;;;;;8.80;4.15;;;;;;;9.63;100.00;98337.66;4994470;28;20394;-64
2021/12/04 07:31:49;;;;;;;4.28;2.60;;;;;;;9.63;100.00;98334.13;4991716;28;20359;-64
2021/12/04 07:34:15;;;;;;;2.17;1.48;;;;;;;9.68;100.00;98346.22;4987986;28;20084;-64
2021/12/04 07:36:40;;;;;;;7.63;2.78;;;;;;;9.73;100.00;98344.16;4994363;28;20030;-64
2021/12/04 07:39:06;;;;;;;4.18;2.67;;;;;;;9.69;100.00;98326.69;4984994;28;20097;-64
2021/12/04 07:41:37;;;;;;;3.60;1.67;;;;;;;9.74;100.00;98337.91;4993360;28;20041;-65
2021/12/04 07:44:03;;;;;;;1.92;1.25;;;;;;;9.75;100.00;98342.25;4994943;28;20076;-65
2021/12/04 07:46:28;;;;;;;2.75;1.35;;;;;;;9.83;100.00;98345.38;4994477;28;20022;-65
2021/12/04 07:48:54;;;;;;;1.85;1.30;;;;;;;9.83;100.00;98334.75;4984755;28;20049;-65
2021/12/04 07:51:19;;;;;;;2.55;1.00;;;;;;;9.85;100.00;98335.50;4994451;28;20105;-65
2021/12/04 07:53:47;;;;;;;2.50;1.95;;;;;;;9.88;100.00;98332.69;4995177;28;20084;-65
2021/12/04 07:56:13;;;;;;;4.13;2.08;;;;;;;9.89;100.00;98321.13;4992143;28;20033;-65
2021/12/04 07:58:39;;;;;;;5.65;3.10;;;;;;;10.03;100.00;98337.09;4988041;28;20022;-65
2021/12/04 08:01:04;;;;;;;2.97;1.75;;;;;;;10.01;100.00;98335.50;4994190;28;20026;-65
2021/12/04 08:03:30;;;;;;;2.38;1.27;;;;;;;10.02;100.00;98330.09;4994922;28;20029;-65
2021/12/04 08:05:55;;;;;;;1.20;1.08;;;;;;;10.01;100.00;98322.22;4990431;28;20038;-65
2021/12/04 08:08:21;;;;;;;1.80;1.40;;;;;;;9.95;100.00;98320.75;4981970;28;20031;-65
2021/12/04 08:10:46;;;;;;;1.48;1.25;;;;;;;10.07;100.00;98333.34;4996688;28;20026;-65
2021/12/04 08:13:12;;;;;;;2.22;1.60;;;;;;;10.10;100.00;98335.84;5014103;28;20559;-65
2021/12/04 08:15:37;;;;;;;2.25;1.50;;;;;;;10.12;100.00;98330.44;4992311;28;20452;-65
2021/12/04 08:18:05;;;;;;;1.90;1.20;;;;;;;10.11;100.00;98329.59;4979940;28;20030;-65
2021/12/04 08:20:30;;;;;;;1.98;1.33;;;;;;;10.18;100.00;98320.31;4975544;28;20093;-65
2021/12/04 08:22:56;;;;;;;2.90;1.70;;;;;;;10.20;100.00;98318.44;4979503;28;20114;-65
2021/12/04 08:25:22;;;;;;;2.03;1.30;;;;;;;10.24;100.00;98319.97;4974221;28;20015;-65
2021/12/04 08:27:49;;;;;;;2.45;1.25;;;;;;;10.30;100.00;98321.41;4977595;28;20027;-65
2021/12/04 08:30:19;;;;;;;2.97;1.50;;;;;;;10.24;100.00;98303.19;4993613;28;20026;-65
2021/12/04 08:32:45;;;;;;;2.80;1.40;;;;;;;10.35;100.00;98312.22;4989676;28;20163;-65
2021/12/04 08:35:14;;;;;;;2.88;1.60;;;;;;;10.37;100.00;98314.78;4986596;28;20050;-65
2021/12/04 08:37:39;;;;;;;2.80;1.75;;;;;;;10.41;100.00;98314.50;4974291;28;20097;-65
2021/12/04 08:40:11;;;;;;;2.45;1.63;;;;;;;10.38;100.00;98306.72;4982910;28;20165;-65
2021/12/04 08:42:38;;;;;;;2.38;1.45;;;;;;;10.46;100.00;98312.44;4989900;28;20494;-65
2021/12/04 08:45:04;;;;;;;2.17;1.38;;;;;;;10.50;100.00;98306.00;4993897;28;20390;-65
2021/12/04 08:47:29;;;;;;;4.68;2.15;;;;;;;10.54;100.00;98314.66;4994115;28;20030;-65
2021/12/04 08:49:55;;;;;;;3.78;2.38;;;;;;;10.58;100.00;98297.56;4994547;28;20026;-65
2021/12/04 08:52:20;;;;;;;2.03;1.30;;;;;;;10.61;100.00;98305.34;4986123;28;20121;-65
2021/12/04 08:54:46;;;;;;;3.53;2.05;;;;;;;10.68;100.00;98308.50;4974327;28;20401;-65
2021/12/04 08:57:12;;;;;;;3.80;1.40;;;;;;;10.69;100.00;98310.22;4980713;28;20097;-65
2021/12/04 08:59:38;;;;;;;2.08;1.50;;;;;;;10.74;100.00;98302.84;4993691;28;20018;-65
2021/12/04 09:02:04;;;;;;;5.32;2.25;;;;;;;10.73;100.00;98301.09;4983756;28;20029;-65
2021/12/04 09:04:32;;;;;;;5.30;1.60;;;;;;;10.78;100.00;98304.34;5008180;28;20021;-65
2021/12/04 09:06:58;;;;;;;2.67;1.35;;;;;;;10.81;100.00;98306.84;4993170;28;20030;-65
2021/12/04 09:09:24;;;;;;;4.90;1.55;;;;;;;10.84;100.00;98304.00;4977932;28;20023;-65
2021/12/04 09:12:00;;;;;;;4.07;1.17;;;;;;;10.84;100.00;98304.00;4973449;28;20255;-65
2021/12/04 09:14:30;;;;;;;2.10;1.20;;;;;;;10.87;100.00;98303.81;4975742;28;20519;-65
2021/12/04 09:16:57;;;;;;;2.22;1.35;;;;;;;10.91;100.00;98300.84;4982999;28;20023;-65
2021/12/04 09:19:24;;;;;;;4.15;1.33;;;;;;;10.94;100.00;98300.66;4977023;28;20027;-65
2021/12/04 09:21:51;;;;;;;2.90;1.48;;;;;;;11.02;100.00;98298.38;4975625;28;20478;-65
2021/12/04 09:24:24;;;;;;;3.55;1.60;;;;;;;11.00;100.00;98289.66;4978287;28;20093;-65
2021/12/04 09:29:44;;;;;;;4.20;1.60;;;;;;;11.07;100.00;98295.47;4980186;28;20030;-66
2021/12/04 10:34:27;;;;;;;2.45;1.27;;;;;;;11.94;100.00;98193.91;4986262;28;20038;-66
2021/12/04 10:36:53;;;;;;;2.10;1.25;;;;;;;12.07;100.00;98204.59;4992732;28;20026;-66
2021/12/04 10:39:20;;;;;;;1.40;1.30;;;;;;;12.13;100.00;98210.38;4989891;28;20413;-66
2021/12/04 10:41:46;;;;;;;2.15;1.27;;;;;;;12.05;100.00;98199.38;4979408;28;20037;-65
2021/12/04 10:44:11;;;;;;;2.47;1.30;;;;;;;12.11;100.00;98198.94;4990002;28;20156;-65
2021/12/04 10:46:37;;;;;;;2.83;1.30;;;;;;;12.08;100.00;98196.50;4992301;28;20537;-65
2021/12/04 10:49:10;;;;;;;1.48;1.20;;;;;;;12.09;100.00;98190.22;4988106;28;20030;-65
2021/12/04 10:51:46;;;;;;;1.55;1.33;;;;;;;12.07;100.00;98194.81;4981460;28;20018;-65
2021/12/04 10:54:23;;;;;;;1.77;1.15;;;;;;;12.09;100.00;98176.91;4971337;28;20030;-65
2021/12/04 10:57:02;;;;;;;2.60;1.42;;;;;;;12.08;100.00;98174.31;4991572;28;20031;-65
2021/12/04 11:04:38;;;;;;;4.00;1.77;;;;;;;12.06;100.00;98182.41;4975388;28;20027;-65
2021/12/04 11:07:40;;;;;;;1.30;1.20;;;;;;;11.99;100.00;98177.63;4971002;28;20502;-66
2021/12/04 11:26:38;;;;;;;2.75;1.25;;;;;;;11.94;100.00;98137.97;4989086;28;20034;-66
2021/12/04 11:45:13;;;;;;;3.35;1.75;;;;;;;12.04;100.00;98104.41;4971057;28;20023;-66
2021/12/04 11:47:42;;;;;;;2.55;1.70;;;;;;;12.13;100.00;98098.44;4980881;28;20061;-66
2021/12/04 11:50:21;;;;;;;4.03;1.80;;;;;;;12.15;100.00;98114.31;4990685;28;20022;-66
2021/12/04 11:52:51;;;;;;;4.05;2.20;;;;;;;12.13;100.00;98098.44;4991506;28;20030;-66
2021/12/04 11:55:19;;;;;;;3.20;1.60;;;;;;;12.15;100.00;98101.00;4985877;28;20550;-66
2021/12/04 11:57:46;;;;;;;2.53;1.40;;;;;;;12.10;100.00;98097.78;4982020;28;20037;-66
2021/12/04 12:00:25;;;;;;;4.80;2.00;;;;;;;12.15;100.00;98101.84;4978289;28;20034;-66
2021/12/04 12:03:03;;;;;;;2.35;1.48;;;;;;;12.13;100.00;98098.44;4983595;28;20387;-66
2021/12/04 12:05:29;;;;;;;3.33;2.13;;;;;;;12.04;100.00;98099.09;4990270;28;20022;-66
2021/12/04 12:07:57;;;;;;;2.25;1.50;;;;;;;12.01;100.00;98083.28;4986750;28;20033;-65
2021/12/04 12:10:26;;;;;;;2.33;1.38;;;;;;;11.98;100.00;98082.66;4986469;28;20505;-65
2021/12/04 12:12:56;;;;;;;2.63;1.48;;;;;;;11.97;100.00;98072.94;4980476;28;20406;-65
2021/12/04 12:15:34;;;;;;;2.30;1.10;;;;;;;11.99;100.00;98071.03;4982541;28;20033;-65
2021/12/04 12:18:15;;;;;;;1.73;1.30;;;;;;;11.99;100.00;98066.56;4995934;28;20023;-65
2021/12/04 12:20:49;;;;;;;1.25;1.08;;;;;;;12.02;100.00;98069.03;4988741;28;20043;-65
2021/12/04 12:23:19;;;;;;;1.73;1.42;;;;;;;11.98;100.00;98062.19;4975431;28;20132;-65
2021/12/04 12:37:13;;;;;;;2.10;1.38;;;;;;;11.90;100.00;98056.53;4985268;28;20054;-63
2021/12/04 12:39:50;;;;;;;3.15;2.03;;;;;;;11.86;100.00;98057.72;4976874;28;20364;-63
2021/12/04 12:42:28;;;;;;;2.50;1.25;;;;;;;11.82;100.00;98059.75;4974596;28;20471;-63
2021/12/04 12:44:54;;;;;;;1.83;1.50;;;;;;;11.85;100.00;98072.84;4997058;28;20053;-64
2021/12/04 12:47:21;;;;;;;1.80;1.33;;;;;;;11.87;100.00;98070.06;4993567;28;20030;-64
2021/12/04 12:49:48;;;;;;;3.33;1.73;;;;;;;11.77;100.00;98069.00;4992110;28;20614;-64
2021/12/04 12:52:29;;;;;;;4.70;2.22;;;;;;;11.81;100.00;98062.50;4981056;28;20061;-64
2021/12/04 12:54:57;;;;;;;4.72;2.22;;;;;;;11.84;100.00;98064.97;4991608;28;20030;-64
2021/12/04 12:57:30;;;;;;;5.38;2.60;;;;;;;11.82;100.00;98075.72;4987436;28;20088;-64
2021/12/04 13:14:18;;;;;;;2.83;1.85;;;;;;;11.76;100.00;98084.09;4991577;28;20050;-64
2021/12/04 13:16:59;;;;;;;1.40;1.10;;;;;;;11.73;100.00;98086.13;4972068;28;20034;-64
2021/12/04 13:19:25;;;;;;;2.35;1.50;;;;;;;11.75;100.00;98076.22;4992532;28;20034;-64
2021/12/04 13:21:57;;;;;;;2.70;1.30;;;;;;;11.72;100.00;98076.44;4988020;28;20034;-63
2021/12/04 13:24:25;;;;;;;1.85;1.10;;;;;;;11.71;100.00;98077.41;4989139;28;20027;-63
2021/12/04 13:26:53;;;;;;;2.67;1.67;;;;;;;11.67;100.00;98070.56;4979938;28;20117;-63
2021/12/04 13:29:25;;;;;;;2.95;1.60;;;;;;;11.64;100.00;98068.13;4991163;28;20133;-63
2021/12/04 13:31:58;;;;;;;4.45;2.20;;;;;;;11.72;100.00;98076.44;4987457;28;20049;-63
2021/12/04 13:34:29;;;;;;;3.33;1.88;;;;;;;11.76;100.00;98070.78;4988810;28;20038;-64
2021/12/04 13:36:57;;;;;;;3.08;1.95;;;;;;;11.76;100.00;98069.97;4990344;28;20046;-63
2021/12/04 13:39:24;;;;;;;3.33;2.08;;;;;;;11.78;100.00;98068.03;4981129;28;20010;-63
2021/12/04 13:41:52;;;;;;;2.63;1.55;;;;;;;11.78;100.00;98076.00;4971626;28;20034;-63
2021/12/04 13:44:20;;;;;;;2.33;1.67;;;;;;;11.74;100.00;98085.19;4986847;28;20031;-63
2021/12/04 13:46:56;;;;;;;2.50;1.67;;;;;;;11.77;100.00;98092.97;4988765;28;20018;-63
2021/12/04 13:49:32;;;;;;;3.05;2.08;;;;;;;11.77;100.00;98100.94;4982491;28;20038;-65
2021/12/04 13:52:02;;;;;;;3.00;1.67;;;;;;;11.75;100.00;98098.41;4989899;28;20104;-62
2021/12/04 13:54:29;;;;;;;5.75;1.55;;;;;;;11.81;100.00;98108.63;4991185;28;20034;-62
2021/12/04 13:56:55;;;;;;;2.05;1.20;;;;;;;11.80;100.00;98114.91;4986422;28;20034;-62
2021/12/04 13:59:26;;;;;;;2.80;1.13;;;;;;;11.78;100.00;98107.97;4990979;28;20034;-62
2021/12/04 14:01:52;;;;;;;1.73;1.10;;;;;;;11.75;100.00;98113.50;4988845;28;20026;-62
2021/12/04 14:04:19;;;;;;;1.33;1.10;;;;;;;11.78;100.00;98106.16;4991332;28;20026;-62
2021/12/04 14:07:03;;;;;;;1.73;1.10;;;;;;;11.80;100.00;98106.06;4987331;28;20476;-62
2021/12/04 14:09:37;;;;;;;1.42;1.05;;;;;;;11.78;100.00;98115.97;4989809;28;20054;-62
2021/12/04 14:12:05;;;;;;;5.78;2.05;;;;;;;11.74;100.00;98106.50;4986128;28;20537;-62
2021/12/04 14:14:33;;;;;;;3.25;1.65;;;;;;;11.72;100.00;98103.06;4988680;28;20026;-62
2021/12/04 14:17:08;;;;;;;1.80;1.17;;;;;;;11.70;100.00;98107.66;4983968;28;20034;-64
2021/12/04 14:19:34;;;;;;;2.55;1.30;;;;;;;11.74;100.00;98109.16;4986568;28;20045;-63
2021/12/04 14:22:10;;;;;;;1.55;1.20;;;;;;;11.74;100.00;98110.03;4992379;28;20418;-63
2021/12/04 14:24:43;;;;;;;3.25;1.48;;;;;;;11.73;100.00;98107.44;4987879;28;20022;-64
2021/12/04 14:27:21;;;;;;;5.28;1.73;;;;;;;11.72;100.00;98119.06;4988361;28;20034;-64
2021/12/04 14:29:51;;;;;;;2.92;1.77;;;;;;;11.72;100.00;98121.72;4991111;28;20053;-64
2021/12/04 14:32:24;;;;;;;1.83;1.52;;;;;;;11.73;100.00;98126.94;4983756;28;20054;-64
2021/12/04 14:35:00;;;;;;;1.27;1.05;;;;;;;11.73;100.00;98126.06;4987256;28;20068;-65
2021/12/04 14:37:27;;;;;;;5.55;2.00;;;;;;;11.71;100.00;98128.84;4982695;28;20030;-66
2021/12/04 14:39:53;;;;;;;2.30;1.55;;;;;;;11.71;100.00;98136.84;4982353;28;20540;-65
2021/12/04 14:42:20;;;;;;;2.75;1.70;;;;;;;11.74;100.00;98136.66;4988549;28;20026;-65
2021/12/04 14:45:02;;;;;;;2.78;1.60;;;;;;;11.71;100.00;98142.16;4980471;28;20039;-65